Time;durP1;ratioP1;P1;durP2;ratioP2;P2;SDS_P1;SDS_P2;PMS_P1;PMS_P2;Temp;Humidity;BMP_temperature;BMP_pressure;BME280_temperature;BME280_humidity;BME280_pressure;Samples;Min_cycle;Max_cycle;Signal;HPM_P1;HPM_P2
2021/10/29 00:01:14;;;;;;;16.92;7.72;;;;;;;7.13;53.12;101032.28;4960210;28;20043;-65
2021/10/29 00:03:40;;;;;;;12.32;7.32;;;;;;;7.15;53.06;101027.91;4961416;28;20035;-66
2021/10/29 00:06:05;;;;;;;14.18;6.93;;;;;;;7.14;52.67;101026.19;4958464;28;20043;-65
2021/10/29 00:08:31;;;;;;;10.80;6.30;;;;;;;7.14;52.55;101031.41;4959608;28;20043;-64
2021/10/29 00:10:57;;;;;;;10.88;7.07;;;;;;;7.16;52.78;101024.44;4960922;28;20146;-65
2021/10/29 00:13:22;;;;;;;13.43;6.93;;;;;;;7.15;52.35;101019.25;4960129;28;20484;-66
2021/10/29 00:15:48;;;;;;;12.18;7.10;;;;;;;7.06;52.82;101018.56;4962897;28;20549;-64
2021/10/29 00:18:13;;;;;;;12.48;7.13;;;;;;;7.05;52.77;101016.88;4961359;28;20039;-65
2021/10/29 00:20:39;;;;;;;15.98;7.70;;;;;;;7.01;53.15;101016.97;4961113;28;20039;-65
2021/10/29 00:23:04;;;;;;;10.35;7.47;;;;;;;7.02;53.21;101019.56;4960669;28;20548;-63
2021/10/29 00:25:31;;;;;;;11.65;6.68;;;;;;;7.01;53.02;101014.38;4961040;28;20312;-65
2021/10/29 00:27:56;;;;;;;14.85;7.65;;;;;;;7.01;52.93;101014.38;4963305;28;20045;-65
2021/10/29 00:30:22;;;;;;;12.35;7.45;;;;;;;6.95;53.31;101019.72;4966121;28;20499;-65
2021/10/29 00:32:48;;;;;;;14.15;8.18;;;;;;;6.93;53.73;101021.47;4969256;28;20045;-64
2021/10/29 00:35:13;;;;;;;14.77;8.20;;;;;;;6.99;53.18;101016.16;4964083;28;20470;-65
2021/10/29 00:37:40;;;;;;;15.57;8.30;;;;;;;6.96;53.10;101005.84;4964333;28;20061;-65
2021/10/29 00:40:09;;;;;;;12.45;7.25;;;;;;;6.88;53.02;101011.19;4968479;28;20041;-66
2021/10/29 00:42:35;;;;;;;13.50;8.07;;;;;;;6.91;53.05;101013.75;4966579;28;20047;-65
2021/10/29 00:45:02;;;;;;;12.18;8.43;;;;;;;6.89;52.84;101021.56;4970187;28;20061;-65
2021/10/29 00:47:27;;;;;;;15.90;8.85;;;;;;;6.82;53.22;101022.59;4980243;28;20046;-65
2021/10/29 00:49:53;;;;;;;13.90;7.05;;;;;;;6.79;53.19;101025.25;4983308;28;20136;-62
2021/10/29 00:52:18;;;;;;;15.05;8.52;;;;;;;6.74;53.34;101027.09;4988117;28;20054;-64
2021/10/29 00:54:45;;;;;;;14.63;8.15;;;;;;;6.75;53.19;101026.19;4986477;28;20113;-64
2021/10/29 00:57:11;;;;;;;15.57;7.93;;;;;;;6.65;53.65;101027.28;4988963;28;20046;-64
2021/10/29 00:59:37;;;;;;;13.30;8.18;;;;;;;6.71;54.23;101029.75;4988891;28;20103;-63
2021/10/29 01:02:03;;;;;;;14.93;8.73;;;;;;;6.73;53.03;101028.00;4981502;28;20046;-64
2021/10/29 01:04:29;;;;;;;12.93;8.43;;;;;;;6.70;53.46;101028.03;4987416;28;20034;-63
2021/10/29 01:06:55;;;;;;;22.67;9.15;;;;;;;6.68;53.60;101035.00;4981105;28;20070;-64
2021/10/29 01:09:20;;;;;;;13.55;9.30;;;;;;;6.73;53.44;101025.41;4984195;28;20026;-66
2021/10/29 01:11:46;;;;;;;16.58;9.27;;;;;;;6.72;53.88;101023.66;4985925;28;20043;-66
2021/10/29 01:14:11;;;;;;;15.40;8.85;;;;;;;6.73;54.05;101015.00;4984617;28;20046;-66
2021/10/29 01:16:37;;;;;;;15.73;8.55;;;;;;;6.89;53.57;101011.16;4982855;28;20045;-65
2021/10/29 01:19:03;;;;;;;20.52;9.77;;;;;;;7.03;53.52;101010.00;4964276;28;20057;-66
2021/10/29 01:21:29;;;;;;;17.10;8.27;;;;;;;6.94;53.23;101007.63;4963820;28;20065;-65
2021/10/29 01:23:54;;;;;;;19.42;9.65;;;;;;;6.93;53.47;100998.94;4963010;28;20555;-65
2021/10/29 01:26:20;;;;;;;17.70;10.07;;;;;;;6.80;53.91;100998.38;4966816;28;20054;-65
2021/10/29 01:28:46;;;;;;;19.45;10.23;;;;;;;6.99;53.03;101000.56;4962926;28;20019;-67
2021/10/29 01:31:14;;;;;;;18.38;8.52;;;;;;;7.03;52.95;101007.41;4966825;28;20472;-65
2021/10/29 01:33:39;;;;;;;15.20;9.52;;;;;;;7.00;53.44;101007.44;4967834;28;20095;-65
2021/10/29 01:36:05;;;;;;;20.48;10.65;;;;;;;6.99;53.35;101008.34;4963499;28;20130;-68
2021/10/29 01:38:36;;;;;;;17.08;9.73;;;;;;;7.10;53.02;101002.00;4970289;28;20046;-64
2021/10/29 01:41:03;;;;;;;16.17;8.82;;;;;;;7.03;52.61;100992.66;4963559;28;20042;-64
2021/10/29 01:43:28;;;;;;;18.67;9.52;;;;;;;7.05;53.03;101000.44;4975758;28;20035;-65
2021/10/29 01:45:55;;;;;;;20.10;10.15;;;;;;;7.04;53.28;101001.31;4964363;28;20102;-65
2021/10/29 01:48:22;;;;;;;16.08;9.05;;;;;;;6.90;53.47;100994.69;4971893;28;20057;-65
2021/10/29 01:50:48;;;;;;;17.85;9.40;;;;;;;7.03;52.86;100999.59;4965823;28;20087;-65
2021/10/29 01:53:13;;;;;;;15.68;9.27;;;;;;;7.01;53.01;100998.78;4966738;28;20062;-65
2021/10/29 01:55:39;;;;;;;17.73;9.88;;;;;;;6.96;53.08;100996.28;4964303;28;20039;-66
2021/10/29 01:58:04;;;;;;;16.23;10.05;;;;;;;7.06;53.05;100986.53;4969885;28;20117;-65
2021/10/29 02:00:30;;;;;;;17.52;10.00;;;;;;;7.18;52.28;100988.00;4968443;28;20129;-66
2021/10/29 02:02:56;;;;;;;18.85;9.73;;;;;;;7.06;52.59;100992.56;4967021;28;20038;-65
2021/10/29 02:05:21;;;;;;;21.65;9.85;;;;;;;7.10;52.58;100988.16;4963492;28;20542;-65
2021/10/29 02:07:47;;;;;;;19.15;9.50;;;;;;;7.14;52.38;100991.56;4974583;28;20027;-66
2021/10/29 02:10:12;;;;;;;19.17;9.20;;;;;;;7.04;52.57;100985.72;4980645;28;20511;-64
2021/10/29 02:12:39;;;;;;;14.85;9.07;;;;;;;7.02;52.44;100984.88;4984372;28;20058;-64
2021/10/29 02:15:05;;;;;;;21.15;9.75;;;;;;;6.93;52.94;100985.09;4983920;28;20291;-64
2021/10/29 02:17:31;;;;;;;20.00;9.63;;;;;;;7.04;52.20;100983.09;4983434;28;20035;-69
2021/10/29 02:19:58;;;;;;;17.10;10.30;;;;;;;7.00;52.90;100976.28;4982432;28;20089;-68
2021/10/29 02:22:24;;;;;;;23.73;11.02;;;;;;;7.02;52.25;100975.38;4980298;28;20159;-67
2021/10/29 02:24:50;;;;;;;18.33;9.90;;;;;;;7.01;52.65;100968.44;4980968;28;20027;-67
2021/10/29 02:27:15;;;;;;;17.52;9.85;;;;;;;7.12;51.79;100973.41;4980136;28;20043;-68
2021/10/29 02:29:41;;;;;;;19.95;9.77;;;;;;;7.12;51.68;100971.66;4974636;28;20031;-69
2021/10/29 02:32:07;;;;;;;21.00;10.52;;;;;;;7.07;52.42;100964.88;4962328;28;20054;-69
2021/10/29 02:34:33;;;;;;;35.78;11.13;;;;;;;7.08;51.99;100961.34;4967328;28;20038;-68
2021/10/29 02:36:58;;;;;;;16.90;9.43;;;;;;;7.04;52.19;100962.31;4966987;28;20440;-69
2021/10/29 02:39:24;;;;;;;16.67;8.95;;;;;;;7.20;52.07;100960.19;4965936;28;20039;-68
2021/10/29 02:41:49;;;;;;;19.05;10.18;;;;;;;7.20;52.12;100948.09;4966897;28;20042;-71
2021/10/29 02:44:15;;;;;;;17.35;9.25;;;;;;;7.35;51.37;100951.19;4963709;28;20042;-68
2021/10/29 02:46:40;;;;;;;20.15;9.07;;;;;;;7.19;51.80;100948.94;4963731;28;20502;-68
2021/10/29 02:49:06;;;;;;;17.88;9.38;;;;;;;7.27;51.77;100949.63;4964618;28;20070;-70
2021/10/29 02:51:32;;;;;;;20.25;10.35;;;;;;;7.41;51.26;100945.81;4963802;28;20412;-70
2021/10/29 02:53:58;;;;;;;15.60;8.95;;;;;;;7.39;51.77;100932.84;4961418;28;20515;-65
2021/10/29 02:56:24;;;;;;;14.27;9.45;;;;;;;7.47;50.93;100930.91;4962407;28;20042;-65
2021/10/29 02:58:50;;;;;;;20.35;9.45;;;;;;;7.49;50.73;100929.13;4962682;28;20054;-65
2021/10/29 03:01:16;;;;;;;22.10;8.90;;;;;;;7.55;50.47;100925.53;4965410;28;20129;-66
2021/10/29 03:03:41;;;;;;;19.13;9.27;;;;;;;7.48;51.06;100923.97;4964005;28;20054;-65
2021/10/29 03:06:07;;;;;;;19.70;8.05;;;;;;;7.45;50.89;100921.47;4958932;28;20130;-67
2021/10/29 03:08:33;;;;;;;18.42;10.05;;;;;;;7.50;50.50;100923.03;4963244;28;20045;-66
2021/10/29 03:10:58;;;;;;;17.63;8.77;;;;;;;7.46;50.83;100923.16;4965620;28;20058;-65
2021/10/29 03:13:24;;;;;;;17.10;8.88;;;;;;;7.52;50.47;100923.00;4960067;28;20027;-65
2021/10/29 03:15:50;;;;;;;16.40;7.63;;;;;;;7.62;50.44;100921.88;4961313;28;20031;-66
2021/10/29 03:18:17;;;;;;;13.75;8.43;;;;;;;7.54;49.90;100916.00;4963663;28;20420;-64
2021/10/29 03:20:43;;;;;;;17.92;9.32;;;;;;;7.47;50.34;100919.66;4962359;28;20508;-65
2021/10/29 03:23:09;;;;;;;17.58;9.77;;;;;;;7.52;50.00;100912.59;4963101;28;20503;-65
2021/10/29 03:25:34;;;;;;;15.55;8.52;;;;;;;7.48;50.19;100916.16;4958247;28;20089;-66
2021/10/29 03:28:01;;;;;;;16.38;8.93;;;;;;;7.48;50.55;100910.97;4963982;28;20066;-66
2021/10/29 03:30:26;;;;;;;12.38;8.98;;;;;;;7.43;50.23;100910.22;4961407;28;20416;-67
2021/10/29 03:32:54;;;;;;;16.10;7.95;;;;;;;7.50;50.36;100914.38;4964776;28;20039;-68
2021/10/29 03:35:20;;;;;;;18.02;7.85;;;;;;;7.43;50.76;100905.88;4961615;28;20122;-66
2021/10/29 03:40:25;;;;;;;21.40;8.20;;;;;;;7.52;50.12;100905.63;4952478;28;20573;-65
2021/10/29 03:43:05;;;;;;;14.93;7.30;;;;;;;7.58;50.00;100901.19;4963076;28;20573;-66
2021/10/29 03:45:34;;;;;;;16.20;9.00;;;;;;;7.55;50.04;100904.72;4963784;28;20122;-65
2021/10/29 03:48:01;;;;;;;14.27;7.85;;;;;;;7.56;49.75;100893.44;4963333;28;20098;-65
2021/10/29 03:50:33;;;;;;;14.18;7.78;;;;;;;7.40;50.37;100899.91;4959128;28;20101;-65
2021/10/29 03:53:12;;;;;;;16.00;7.97;;;;;;;7.39;50.33;100896.44;4964090;28;20527;-64
2021/10/29 03:55:39;;;;;;;15.57;8.48;;;;;;;7.46;50.00;100902.34;4950985;28;20043;-65
2021/10/29 03:58:05;;;;;;;20.48;8.48;;;;;;;7.35;50.26;100900.03;4962619;28;20262;-65
2021/10/29 04:00:31;;;;;;;16.45;8.68;;;;;;;7.38;49.73;100899.09;4958582;28;20044;-64
2021/10/29 04:03:03;;;;;;;16.52;8.15;;;;;;;7.12;50.78;100898.00;4962122;28;20129;-64
2021/10/29 04:05:31;;;;;;;11.65;6.95;;;;;;;7.18;50.93;100892.66;4962740;28;20353;-64
2021/10/29 04:07:56;;;;;;;17.35;7.70;;;;;;;7.14;50.67;100890.19;4959331;28;20065;-64
2021/10/29 04:10:28;;;;;;;18.40;8.50;;;;;;;7.08;50.89;100886.84;4961732;28;20065;-66
2021/10/29 04:12:56;;;;;;;15.45;7.80;;;;;;;7.20;50.69;100890.00;4953364;28;20031;-66
2021/10/29 04:15:22;;;;;;;15.57;7.93;;;;;;;7.17;50.46;100884.91;4959549;28;20031;-65
2021/10/29 04:17:47;;;;;;;17.85;8.18;;;;;;;7.07;50.47;100889.50;4960583;28;20098;-66
2021/10/29 04:20:13;;;;;;;15.68;7.95;;;;;;;7.08;51.05;100891.19;4956634;28;20042;-65
2021/10/29 04:22:39;;;;;;;16.00;8.00;;;;;;;7.19;50.37;100883.13;4962729;28;20047;-66
2021/10/29 04:25:05;;;;;;;15.55;7.78;;;;;;;7.23;50.04;100880.41;4966656;28;20042;-66
2021/10/29 04:27:33;;;;;;;18.42;8.32;;;;;;;7.25;50.01;100872.56;4963049;28;20079;-66
2021/10/29 04:30:00;;;;;;;12.88;6.75;;;;;;;7.04;51.01;100872.22;4961934;28;20659;-67
2021/10/29 04:32:26;;;;;;;17.23;7.68;;;;;;;7.11;50.15;100876.38;4960446;28;20050;-67
2021/10/29 04:34:52;;;;;;;14.73;6.90;;;;;;;7.12;50.39;100875.47;4961210;28;20038;-66
2021/10/29 04:37:18;;;;;;;16.13;7.38;;;;;;;7.02;51.05;100873.13;4965102;28;20784;-66
2021/10/29 04:39:48;;;;;;;16.13;8.13;;;;;;;7.12;50.31;100878.06;4961813;28;20801;-66
2021/10/29 04:42:16;;;;;;;13.93;7.47;;;;;;;7.11;50.24;100880.72;4945366;28;20058;-66
2021/10/29 04:44:41;;;;;;;13.52;8.20;;;;;;;7.07;50.70;100884.28;4962700;28;20038;-66
2021/10/29 04:47:07;;;;;;;13.40;7.22;;;;;;;7.09;50.41;100874.72;4955847;28;20054;-66
2021/10/29 04:49:32;;;;;;;13.45;7.95;;;;;;;7.01;51.06;100874.88;4965460;28;20035;-65
2021/10/29 04:51:58;;;;;;;11.07;6.70;;;;;;;7.05;50.29;100867.88;4960256;28;20134;-65
2021/10/29 04:54:24;;;;;;;15.35;7.45;;;;;;;7.04;50.38;100869.63;4962130;28;20035;-65
2021/10/29 04:56:51;;;;;;;14.52;6.82;;;;;;;6.97;50.70;100868.06;4960409;28;20553;-64
2021/10/29 04:59:17;;;;;;;16.70;7.30;;;;;;;7.02;50.16;100867.94;4958442;28;20045;-67
2021/10/29 05:01:45;;;;;;;16.63;7.55;;;;;;;6.97;50.19;100856.81;4965710;28;20884;-65
2021/10/29 05:04:11;;;;;;;16.02;7.93;;;;;;;6.85;51.09;100847.59;4962600;28;20125;-65
2021/10/29 05:06:36;;;;;;;17.35;7.82;;;;;;;6.97;50.62;100851.63;4956637;28;20528;-64
2021/10/29 05:09:02;;;;;;;15.45;7.13;;;;;;;6.96;50.51;100850.78;4961444;28;20039;-64
2021/10/29 05:11:27;;;;;;;14.00;6.88;;;;;;;6.79;51.03;100848.59;4956616;28;20100;-65
2021/10/29 05:13:53;;;;;;;12.70;7.10;;;;;;;6.68;51.70;100855.78;4966954;28;20066;-65
2021/10/29 05:16:18;;;;;;;14.85;7.00;;;;;;;6.85;50.94;100845.84;4965703;28;20038;-66
2021/10/29 05:18:44;;;;;;;13.15;7.18;;;;;;;6.84;50.98;100851.94;4967803;28;20038;-65
2021/10/29 05:21:09;;;;;;;13.60;7.20;;;;;;;6.90;51.06;100836.19;4968954;28;20066;-64
2021/10/29 05:23:35;;;;;;;16.40;6.78;;;;;;;6.91;50.77;100844.84;4967376;28;20130;-66
2021/10/29 05:26:00;;;;;;;12.65;6.88;;;;;;;7.01;50.64;100840.25;4964931;28;20035;-66
2021/10/29 05:28:26;;;;;;;14.55;7.85;;;;;;;6.97;50.95;100841.22;4963805;28;20546;-66
2021/10/29 05:30:51;;;;;;;11.00;6.68;;;;;;;7.04;50.21;100845.38;4961265;28;20077;-66
2021/10/29 05:33:17;;;;;;;11.60;7.00;;;;;;;7.02;50.41;100840.22;4964797;28;20043;-67
2021/10/29 05:35:42;;;;;;;12.45;7.78;;;;;;;6.88;50.98;100834.50;4964318;28;20054;-66
2021/10/29 05:38:08;;;;;;;11.07;6.65;;;;;;;6.97;50.64;100842.06;4963723;28;20039;-65
2021/10/29 05:40:33;;;;;;;12.25;6.40;;;;;;;7.00;49.89;100844.63;4961103;28;20043;-65
2021/10/29 05:42:58;;;;;;;13.35;6.68;;;;;;;6.93;50.66;100844.78;4962543;28;20089;-64
2021/10/29 05:45:24;;;;;;;12.77;6.75;;;;;;;6.91;50.32;100837.91;4963987;28;20049;-65
2021/10/29 05:47:49;;;;;;;12.40;6.35;;;;;;;6.78;50.89;100833.91;4964595;28;20039;-67
2021/10/29 05:50:15;;;;;;;12.18;6.70;;;;;;;6.81;50.75;100833.81;4962311;28;20524;-66
2021/10/29 05:52:45;;;;;;;11.35;6.90;;;;;;;6.86;50.80;100831.97;4962574;28;20404;-68
2021/10/29 05:55:19;;;;;;;10.95;6.18;;;;;;;6.73;51.01;100835.78;4965722;28;20047;-65
2021/10/29 05:57:52;;;;;;;14.32;7.45;;;;;;;6.81;51.05;100841.59;4968796;28;20054;-66
2021/10/29 06:00:27;;;;;;;11.13;6.05;;;;;;;6.81;50.68;100836.41;4956406;28;20126;-65
2021/10/29 06:02:53;;;;;;;19.40;7.43;;;;;;;6.95;50.69;100830.88;4965632;28;20498;-66
2021/10/29 06:05:19;;;;;;;14.95;7.93;;;;;;;6.98;50.04;100825.59;4961946;28;20039;-66
2021/10/29 06:07:46;;;;;;;11.32;5.80;;;;;;;6.90;50.82;100824.94;4962486;28;20042;-65
2021/10/29 06:10:14;;;;;;;15.10;6.80;;;;;;;6.97;50.55;100825.63;4964418;28;20104;-65
2021/10/29 06:12:41;;;;;;;12.45;6.13;;;;;;;7.04;50.14;100829.78;4964493;28;20043;-65
2021/10/29 06:15:08;;;;;;;13.52;6.38;;;;;;;6.99;50.63;100834.25;4967733;28;20037;-64
2021/10/29 06:17:34;;;;;;;12.55;6.70;;;;;;;6.76;51.35;100832.25;5031929;22;20891;-67
2021/10/29 06:20:01;;;;;;;13.40;6.47;;;;;;;6.86;50.94;100824.19;4988837;28;20034;-68
2021/10/29 06:22:33;;;;;;;11.70;6.78;;;;;;;7.15;50.00;100824.31;5005211;28;20034;-68
2021/10/29 06:25:07;;;;;;;12.43;6.72;;;;;;;7.15;49.81;100832.94;5008051;28;20037;-68
2021/10/29 06:30:03;;;;;;;10.43;5.78;;;;;;;7.17;50.14;100823.38;4986424;28;20402;-67
2021/10/29 06:32:29;;;;;;;11.20;5.60;;;;;;;7.29;49.71;100828.25;4987169;28;20042;-66
2021/10/29 06:34:55;;;;;;;12.82;6.05;;;;;;;7.32;49.79;100825.56;4986901;28;20096;-66
2021/10/29 06:37:20;;;;;;;12.60;5.85;;;;;;;7.24;49.83;100832.69;4984095;28;20030;-66
2021/10/29 06:39:49;;;;;;;11.82;5.63;;;;;;;7.25;49.88;100834.41;4986615;28;20037;-67
2021/10/29 06:42:21;;;;;;;10.23;6.13;;;;;;;7.44;49.78;100837.34;4982166;28;20043;-65
2021/10/29 06:44:59;;;;;;;12.65;6.35;;;;;;;7.50;49.09;100837.19;4971252;28;20061;-65
2021/10/29 07:00:46;;;;;;;12.45;5.85;;;;;;;7.59;48.86;100828.31;4985607;28;20034;-68
2021/10/29 07:41:17;;;;;;;10.48;5.30;;;;;;;12.04;38.68;100838.81;4971644;28;20037;-67
2021/10/29 07:43:50;;;;;;;14.48;4.80;;;;;;;13.60;36.75;100834.59;4987399;28;20046;-67
2021/10/29 07:46:16;;;;;;;12.68;4.40;;;;;;;14.69;34.39;100816.25;4983772;28;20084;-67
2021/10/29 07:48:43;;;;;;;7.53;3.72;;;;;;;15.49;32.39;100814.13;4966007;28;20077;-68
2021/10/29 07:51:09;;;;;;;9.40;4.65;;;;;;;15.89;31.56;100823.97;4970908;28;20046;-67
2021/10/29 07:53:35;;;;;;;6.57;4.55;;;;;;;16.14;31.85;100820.66;4956791;28;20033;-68
2021/10/29 07:56:03;;;;;;;7.00;3.80;;;;;;;16.32;31.17;100827.38;4987026;28;20533;-67
2021/10/29 07:58:30;;;;;;;8.77;4.80;;;;;;;16.41;30.05;100818.84;4986047;28;20038;-68
2021/10/29 08:00:57;;;;;;;11.10;4.93;;;;;;;17.05;29.89;100823.44;4985753;28;20046;-67
2021/10/29 08:03:22;;;;;;;7.55;4.40;;;;;;;17.29;29.04;100822.69;4985554;28;20387;-68
2021/10/29 08:05:48;;;;;;;6.82;4.72;;;;;;;17.02;29.53;100815.72;4984923;28;20033;-67
2021/10/29 08:08:16;;;;;;;8.13;4.55;;;;;;;16.61;30.21;100821.97;4971202;28;20129;-68
2021/10/29 08:10:42;;;;;;;6.97;3.47;;;;;;;16.54;30.32;100815.41;4970145;28;20097;-69
2021/10/29 08:13:07;;;;;;;5.30;4.32;;;;;;;16.61;30.76;100824.59;4983711;28;20034;-67
2021/10/29 08:15:35;;;;;;;8.20;4.05;;;;;;;16.77;30.38;100822.66;4987425;28;20617;-68
2021/10/29 08:18:03;;;;;;;9.57;5.35;;;;;;;16.40;30.50;100824.25;4990307;28;20026;-67
2021/10/29 08:20:29;;;;;;;6.15;4.15;;;;;;;16.20;30.90;100820.25;4966424;28;20046;-67
2021/10/29 08:22:54;;;;;;;9.15;4.18;;;;;;;16.54;30.41;100823.31;4960026;28;20125;-67
2021/10/29 08:25:20;;;;;;;8.43;5.00;;;;;;;15.91;31.81;100817.66;4989264;28;20427;-67
2021/10/29 08:27:46;;;;;;;6.30;4.50;;;;;;;16.61;30.78;100811.41;4985139;28;20045;-69
2021/10/29 08:30:12;;;;;;;7.10;4.30;;;;;;;16.81;30.53;100818.88;4985392;28;20033;-66
2021/10/29 08:32:42;;;;;;;9.15;3.92;;;;;;;16.53;31.73;100822.50;4987991;28;20043;-67
2021/10/29 08:35:07;;;;;;;7.68;4.80;;;;;;;15.83;31.96;100816.47;4981936;28;20038;-66
2021/10/29 08:37:34;;;;;;;7.43;4.53;;;;;;;14.82;33.79;100810.28;4983195;28;20537;-67
2021/10/29 08:40:00;;;;;;;7.57;4.93;;;;;;;14.36;34.68;100811.97;4986358;28;20479;-67
2021/10/29 08:42:27;;;;;;;9.73;4.72;;;;;;;14.44;35.30;100810.75;4986632;28;20050;-67
2021/10/29 08:44:53;;;;;;;7.85;4.20;;;;;;;14.35;35.37;100810.28;4988345;28;20109;-66
2021/10/29 08:47:23;;;;;;;6.65;4.43;;;;;;;14.55;35.27;100818.84;4969347;28;20032;-68
2021/10/29 08:49:50;;;;;;;8.23;4.50;;;;;;;14.40;35.25;100819.69;4989927;28;20045;-68
2021/10/29 08:52:21;;;;;;;8.05;5.25;;;;;;;14.88;34.67;100825.69;4986132;28;20129;-66
2021/10/29 08:54:48;;;;;;;7.07;4.40;;;;;;;15.23;34.61;100813.09;4960267;28;20060;-66
2021/10/29 08:57:14;;;;;;;8.82;4.72;;;;;;;15.29;33.62;100806.63;4987664;28;20096;-70
2021/10/29 08:59:40;;;;;;;5.55;3.58;;;;;;;15.16;33.94;100803.84;4988615;28;20488;-66
2021/10/29 09:07:24;;;;;;;11.60;4.43;;;;;;;15.05;35.01;100801.84;4987495;28;20094;-67
2021/10/29 09:10:18;;;;;;;8.13;4.50;;;;;;;15.43;33.50;100805.78;4990089;28;20042;-67
2021/10/29 09:32:30;;;;;;;7.22;4.13;;;;;;;16.52;32.33;100775.09;4987334;28;20410;-68
2021/10/29 09:35:21;;;;;;;6.55;3.78;;;;;;;16.34;33.24;100772.72;4986295;28;20030;-67
2021/10/29 09:38:06;;;;;;;9.20;3.92;;;;;;;15.56;33.93;100775.94;4964891;28;20053;-67
2021/10/29 09:41:07;;;;;;;6.05;3.72;;;;;;;16.12;32.92;100770.66;4976031;28;20046;-67
2021/10/29 09:43:55;;;;;;;5.45;3.20;;;;;;;16.04;33.14;100769.44;4972313;28;20034;-67
2021/10/29 09:46:36;;;;;;;8.68;3.70;;;;;;;16.12;32.82;100757.47;4972658;28;20117;-67
2021/10/29 09:49:33;;;;;;;12.43;4.77;;;;;;;16.18;32.65;100764.13;4973168;28;20046;-68
2021/10/29 09:54:53;;;;;;;7.00;4.70;;;;;;;17.17;31.40;100753.09;4986633;28;20332;-67
2021/10/29 09:57:24;;;;;;;6.97;3.50;;;;;;;17.28;31.22;100754.97;4980874;28;20046;-67
2021/10/29 09:59:55;;;;;;;6.20;3.58;;;;;;;17.19;31.31;100754.66;4968337;28;20104;-68
2021/10/29 10:02:22;;;;;;;8.25;3.13;;;;;;;16.99;31.89;100744.66;4966397;28;20041;-67
2021/10/29 10:05:04;;;;;;;4.35;3.40;;;;;;;16.70;32.45;100746.63;4966660;28;20058;-67
2021/10/29 10:07:38;;;;;;;6.95;3.08;;;;;;;16.91;32.36;100745.19;4986814;28;20077;-69
2021/10/29 10:10:16;;;;;;;7.30;3.83;;;;;;;16.89;32.34;100747.09;4988409;28;20503;-67
2021/10/29 10:12:44;;;;;;;7.43;3.42;;;;;;;16.41;32.67;100742.34;4973693;28;20049;-66
2021/10/29 10:15:10;;;;;;;6.35;4.15;;;;;;;16.40;33.12;100738.03;4986925;28;20034;-67
2021/10/29 10:17:37;;;;;;;8.60;3.50;;;;;;;16.44;32.51;100745.72;4986306;28;20058;-68
2021/10/29 10:20:04;;;;;;;8.63;3.50;;;;;;;16.54;33.04;100739.75;4965727;28;20280;-68
2021/10/29 10:22:38;;;;;;;7.05;3.35;;;;;;;16.90;32.52;100732.94;4971020;28;20313;-68
2021/10/29 10:25:11;;;;;;;6.32;3.58;;;;;;;17.74;31.03;100715.56;4960853;28;20579;-68
2021/10/29 10:30:46;;;;;;;4.97;3.08;;;;;;;17.78;30.93;100719.69;4967156;28;20045;-69
2021/10/29 10:47:07;;;;;;;8.70;4.30;;;;;;;17.89;31.10;100704.81;4965488;28;20046;-67
2021/10/29 10:49:39;;;;;;;10.43;3.75;;;;;;;17.35;31.25;100706.88;4964020;28;20057;-67
2021/10/29 10:52:17;;;;;;;5.07;3.28;;;;;;;18.04;30.83;100699.22;4965222;28;20043;-68
2021/10/29 10:54:47;;;;;;;4.63;3.45;;;;;;;17.72;31.26;100706.06;4968827;28;20077;-67
2021/10/29 11:02:38;;;;;;;7.50;3.42;;;;;;;17.74;31.80;100702.34;4967659;28;20550;-68
2021/10/29 11:11:04;;;;;;;5.82;3.58;;;;;;;16.40;33.05;100687.91;4966786;28;20046;-67
2021/10/29 11:13:41;;;;;;;4.45;2.78;;;;;;;16.08;33.80;100676.03;4966591;28;20492;-67
2021/10/29 11:16:07;;;;;;;9.88;4.20;;;;;;;16.29;33.26;100685.16;4965720;28;20137;-67
2021/10/29 11:18:34;;;;;;;8.82;4.13;;;;;;;16.33;33.74;100670.81;4982720;28;20431;-67
2021/10/29 11:21:13;;;;;;;6.30;3.35;;;;;;;16.08;33.62;100668.97;4962943;28;20054;-68
2021/10/29 11:23:49;;;;;;;6.55;3.50;;;;;;;16.19;34.07;100673.53;4965232;28;20046;-67
2021/10/29 11:26:38;;;;;;;8.32;3.38;;;;;;;16.46;33.35;100660.25;4974268;28;20034;-67
2021/10/29 11:29:05;;;;;;;5.20;3.33;;;;;;;16.78;32.94;100652.81;4962030;28;20519;-68
2021/10/29 11:31:37;;;;;;;4.68;2.70;;;;;;;17.13;32.20;100659.19;4963220;28;20045;-68
2021/10/29 11:34:06;;;;;;;5.28;3.08;;;;;;;16.87;32.50;100651.31;4964674;28;20278;-68
2021/10/29 11:36:35;;;;;;;5.70;3.63;;;;;;;17.12;32.29;100647.78;4959856;28;20039;-67
2021/10/29 11:39:04;;;;;;;6.75;3.05;;;;;;;17.17;32.99;100653.56;4964959;28;20469;-67
2021/10/29 11:41:32;;;;;;;4.25;2.80;;;;;;;17.04;32.73;100636.91;4963710;28;20712;-67
2021/10/29 11:44:03;;;;;;;5.93;3.67;;;;;;;16.95;32.54;100640.22;4963430;28;20041;-66
2021/10/29 11:46:29;;;;;;;6.90;3.25;;;;;;;17.03;32.90;100640.53;4959213;28;20112;-67
2021/10/29 11:49:10;;;;;;;4.22;3.40;;;;;;;16.61;33.08;100642.53;4965686;28;20037;-67
2021/10/29 11:51:38;;;;;;;5.57;3.05;;;;;;;16.91;33.17;100644.00;4964142;28;20039;-67
2021/10/29 11:57:09;;;;;;;8.20;3.15;;;;;;;16.53;33.58;100642.22;4960943;28;20110;-67
2021/10/29 12:07:33;;;;;;;8.15;3.13;;;;;;;16.09;34.58;100630.28;4965501;28;20042;-67
2021/10/29 12:10:20;;;;;;;4.78;3.03;;;;;;;15.70;34.97;100629.31;4962550;28;20042;-67
2021/10/29 12:12:48;;;;;;;4.55;3.35;;;;;;;15.45;35.46;100623.00;4964149;28;20055;-68
2021/10/29 12:15:24;;;;;;;6.18;3.53;;;;;;;16.18;34.90;100625.22;4966607;28;20072;-67
2021/10/29 12:18:03;;;;;;;8.50;3.47;;;;;;;16.28;34.14;100619.31;4962934;28;20594;-66
2021/10/29 12:20:35;;;;;;;7.10;3.85;;;;;;;16.03;34.85;100609.59;4961296;28;20054;-67
2021/10/29 12:23:08;;;;;;;9.75;3.08;;;;;;;15.99;35.16;100603.66;4969686;28;20038;-67
2021/10/29 12:28:08;;;;;;;5.50;3.17;;;;;;;16.35;34.15;100592.44;4968132;28;20034;-67
2021/10/29 12:30:45;;;;;;;7.40;2.63;;;;;;;16.71;33.93;100585.56;4966508;28;20046;-68
2021/10/29 13:04:01;;;;;;;4.82;2.95;;;;;;;15.85;35.62;100562.41;4983461;28;20046;-67
2021/10/29 13:06:44;;;;;;;6.90;3.67;;;;;;;15.69;35.55;100554.69;4972495;28;20042;-67
2021/10/29 13:09:12;;;;;;;6.00;2.40;;;;;;;15.78;35.68;100548.81;4966164;28;20038;-66
2021/10/29 13:11:44;;;;;;;7.05;3.42;;;;;;;15.79;35.54;100544.38;4966113;28;20046;-67
2021/10/29 13:14:11;;;;;;;;;;;;;;;16.29;35.12;100544.56;4966015;28;20593;-66
2021/10/29 13:16:36;;;;;;;8.77;2.75;;;;;;;16.43;34.72;100547.06;4979587;28;19957;-66
2021/10/29 13:19:51;;;;;;;8.57;2.72;;;;;;;15.33;36.58;100544.81;4961707;28;20181;-66
2021/10/29 13:38:22;;;;;;;5.90;2.85;;;;;;;15.82;36.28;100531.03;4964081;28;20078;-67
2021/10/29 14:29:19;;;;;;;5.00;2.60;;;;;;;16.91;33.15;100485.63;4965095;28;20120;-66
2021/10/29 14:34:20;;;;;;;9.50;2.35;;;;;;;17.46;33.25;100486.81;4967063;28;20047;-67
2021/10/29 14:36:52;;;;;;;6.00;2.00;;;;;;;17.28;33.04;100480.28;4960335;28;20073;-67
2021/10/29 15:03:11;;;;;;;9.63;2.63;;;;;;;14.94;37.73;100477.97;4963413;28;20045;-67
2021/10/29 15:17:02;;;;;;;7.50;5.90;;;;;;;14.23;38.89;100466.66;4961020;28;20459;-66
2021/10/29 15:30:21;;;;;;;5.30;2.50;;;;;;;14.31;38.90;100458.28;4931235;28;20038;-69
2021/10/29 15:49:06;;;;;;;3.72;2.38;;;;;;;13.81;39.78;100452.56;4979377;28;20042;-65
2021/10/29 15:51:33;;;;;;;3.92;1.83;;;;;;;13.72;40.16;100451.34;4956875;28;20034;-68
2021/10/29 15:54:06;;;;;;;8.60;2.45;;;;;;;13.82;39.94;100454.25;4981785;28;20027;-66
2021/10/29 16:18:04;;;;;;;4.40;2.55;;;;;;;13.00;41.80;100468.63;4984199;28;20383;-65
2021/10/29 16:20:29;;;;;;;3.83;2.35;;;;;;;13.13;41.42;100463.53;4981459;28;20070;-66
2021/10/29 16:22:57;;;;;;;7.65;2.22;;;;;;;12.99;41.69;100456.44;4985119;28;20553;-66
2021/10/29 16:25:35;;;;;;;5.50;3.15;;;;;;;13.07;41.45;100446.38;4967715;28;20038;-66
2021/10/29 16:28:12;;;;;;;4.18;2.10;;;;;;;13.01;41.68;100443.25;4971515;28;20039;-66
2021/10/29 16:30:37;;;;;;;4.55;2.53;;;;;;;12.90;42.16;100439.44;4983923;28;20414;-67
2021/10/29 16:35:34;;;;;;;4.65;2.65;;;;;;;12.59;43.04;100453.41;4980193;28;20071;-66
2021/10/29 16:38:06;;;;;;;4.82;2.80;;;;;;;12.67;42.60;100461.69;4967465;28;20025;-66
2021/10/29 16:40:32;;;;;;;3.35;2.35;;;;;;;12.90;42.00;100467.47;4974577;28;20085;-65